sensor_id;sensor_type;location;lat;lon;timestamp;pressure;altitude;pressure_sealevel;temperature
21210;BMP180;10762;42.206;25.326;2024-03-17T00:02:09;99809.00;;;13.10
21210;BMP180;10762;42.206;25.326;2024-03-17T00:04:35;99820.00;;;13.10
21210;BMP180;10762;42.206;25.326;2024-03-17T00:07:01;99811.00;;;13.10
21210;BMP180;10762;42.206;25.326;2024-03-17T00:09:27;99823.00;;;13.10
21210;BMP180;10762;42.206;25.326;2024-03-17T00:11:53;99824.00;;;13.10
21210;BMP180;10762;42.206;25.326;2024-03-17T00:14:19;99812.00;;;13.10
21210;BMP180;10762;42.206;25.326;2024-03-17T00:16:45;99826.00;;;13.10
21210;BMP180;10762;42.206;25.326;2024-03-17T00:19:11;99821.00;;;13.10
21210;BMP180;10762;42.206;25.326;2024-03-17T00:21:37;99823.00;;;13.10
21210;BMP180;10762;42.206;25.326;2024-03-17T00:24:03;99819.00;;;13.10
21210;BMP180;10762;42.206;25.326;2024-03-17T00:26:30;99822.00;;;13.00
21210;BMP180;10762;42.206;25.326;2024-03-17T00:28:56;99809.00;;;13.00
21210;BMP180;10762;42.206;25.326;2024-03-17T00:31:22;99817.00;;;13.00
21210;BMP180;10762;42.206;25.326;2024-03-17T00:33:52;99820.00;;;13.00
21210;BMP180;10762;42.206;25.326;2024-03-17T00:36:18;99811.00;;;13.00
21210;BMP180;10762;42.206;25.326;2024-03-17T00:38:44;99822.00;;;13.00
21210;BMP180;10762;42.206;25.326;2024-03-17T00:41:10;99812.00;;;13.00
21210;BMP180;10762;42.206;25.326;2024-03-17T00:43:36;99817.00;;;13.00
21210;BMP180;10762;42.206;25.326;2024-03-17T00:46:03;99830.00;;;13.00
21210;BMP180;10762;42.206;25.326;2024-03-17T00:48:29;99830.00;;;13.00
21210;BMP180;10762;42.206;25.326;2024-03-17T00:50:56;99811.00;;;13.00
21210;BMP180;10762;42.206;25.326;2024-03-17T00:53:22;99813.00;;;12.90
21210;BMP180;10762;42.206;25.326;2024-03-17T00:55:52;99825.00;;;12.90
21210;BMP180;10762;42.206;25.326;2024-03-17T00:58:19;99825.00;;;12.90
21210;BMP180;10762;42.206;25.326;2024-03-17T01:00:45;99825.00;;;12.90
21210;BMP180;10762;42.206;25.326;2024-03-17T01:03:14;99823.00;;;12.90
21210;BMP180;10762;42.206;25.326;2024-03-17T01:05:40;99820.00;;;12.80
21210;BMP180;10762;42.206;25.326;2024-03-17T01:08:11;99832.00;;;12.80
21210;BMP180;10762;42.206;25.326;2024-03-17T01:10:37;99822.00;;;12.80
21210;BMP180;10762;42.206;25.326;2024-03-17T01:13:05;99817.00;;;12.70
21210;BMP180;10762;42.206;25.326;2024-03-17T01:15:31;99809.00;;;12.70
21210;BMP180;10762;42.206;25.326;2024-03-17T01:17:57;99809.00;;;12.70
21210;BMP180;10762;42.206;25.326;2024-03-17T01:20:23;99824.00;;;12.70
21210;BMP180;10762;42.206;25.326;2024-03-17T01:22:49;99812.00;;;12.70
21210;BMP180;10762;42.206;25.326;2024-03-17T01:25:15;99825.00;;;12.70
21210;BMP180;10762;42.206;25.326;2024-03-17T01:27:41;99807.00;;;12.70
21210;BMP180;10762;42.206;25.326;2024-03-17T01:30:09;99805.00;;;12.70
21210;BMP180;10762;42.206;25.326;2024-03-17T01:32:35;99818.00;;;12.70
21210;BMP180;10762;42.206;25.326;2024-03-17T01:35:02;99800.00;;;12.70
21210;BMP180;10762;42.206;25.326;2024-03-17T01:37:28;99807.00;;;12.70
21210;BMP180;10762;42.206;25.326;2024-03-17T01:39:58;99803.00;;;12.70
21210;BMP180;10762;42.206;25.326;2024-03-17T01:42:24;99800.00;;;12.70
21210;BMP180;10762;42.206;25.326;2024-03-17T01:44:50;99802.00;;;12.70
21210;BMP180;10762;42.206;25.326;2024-03-17T01:47:19;99794.00;;;12.60
21210;BMP180;10762;42.206;25.326;2024-03-17T01:49:46;99802.00;;;12.70
21210;BMP180;10762;42.206;25.326;2024-03-17T01:52:14;99802.00;;;12.70
21210;BMP180;10762;42.206;25.326;2024-03-17T01:54:41;99803.00;;;12.70
21210;BMP180;10762;42.206;25.326;2024-03-17T01:57:07;99785.00;;;12.70
21210;BMP180;10762;42.206;25.326;2024-03-17T01:59:33;99802.00;;;12.70
21210;BMP180;10762;42.206;25.326;2024-03-17T02:01:59;99804.00;;;12.70
21210;BMP180;10762;42.206;25.326;2024-03-17T02:04:25;99801.00;;;12.60
21210;BMP180;10762;42.206;25.326;2024-03-17T02:06:52;99801.00;;;12.60
21210;BMP180;10762;42.206;25.326;2024-03-17T02:09:18;99808.00;;;12.60
21210;BMP180;10762;42.206;25.326;2024-03-17T02:11:44;99808.00;;;12.60
21210;BMP180;10762;42.206;25.326;2024-03-17T02:14:10;99805.00;;;12.60
21210;BMP180;10762;42.206;25.326;2024-03-17T02:16:40;99799.00;;;12.50
21210;BMP180;10762;42.206;25.326;2024-03-17T02:19:06;99797.00;;;12.50
21210;BMP180;10762;42.206;25.326;2024-03-17T02:21:32;99800.00;;;12.50
21210;BMP180;10762;42.206;25.326;2024-03-17T02:23:58;99792.00;;;12.50
21210;BMP180;10762;42.206;25.326;2024-03-17T02:26:26;99800.00;;;12.50
21210;BMP180;10762;42.206;25.326;2024-03-17T02:28:52;99794.00;;;12.50
21210;BMP180;10762;42.206;25.326;2024-03-17T02:31:18;99801.00;;;12.50
21210;BMP180;10762;42.206;25.326;2024-03-17T02:33:45;99800.00;;;12.50
21210;BMP180;10762;42.206;25.326;2024-03-17T02:36:11;99800.00;;;12.50
21210;BMP180;10762;42.206;25.326;2024-03-17T02:38:41;99803.00;;;12.50
21210;BMP180;10762;42.206;25.326;2024-03-17T02:41:26;99794.00;;;12.50
21210;BMP180;10762;42.206;25.326;2024-03-17T02:43:52;99801.00;;;12.50
21210;BMP180;10762;42.206;25.326;2024-03-17T02:46:18;99796.00;;;12.50
21210;BMP180;10762;42.206;25.326;2024-03-17T02:48:47;99806.00;;;12.50
21210;BMP180;10762;42.206;25.326;2024-03-17T02:51:14;99802.00;;;12.50
21210;BMP180;10762;42.206;25.326;2024-03-17T02:53:41;99807.00;;;12.50
21210;BMP180;10762;42.206;25.326;2024-03-17T02:56:07;99807.00;;;12.50
21210;BMP180;10762;42.206;25.326;2024-03-17T02:58:34;99812.00;;;12.50
21210;BMP180;10762;42.206;25.326;2024-03-17T03:01:00;99811.00;;;12.50
21210;BMP180;10762;42.206;25.326;2024-03-17T03:03:26;99808.00;;;12.50
21210;BMP180;10762;42.206;25.326;2024-03-17T03:05:52;99817.00;;;12.50
21210;BMP180;10762;42.206;25.326;2024-03-17T03:08:18;99824.00;;;12.50
21210;BMP180;10762;42.206;25.326;2024-03-17T03:10:44;99813.00;;;12.60
21210;BMP180;10762;42.206;25.326;2024-03-17T03:13:11;99813.00;;;12.60
21210;BMP180;10762;42.206;25.326;2024-03-17T03:15:37;99801.00;;;12.70
21210;BMP180;10762;42.206;25.326;2024-03-17T03:18:03;99812.00;;;12.70
21210;BMP180;10762;42.206;25.326;2024-03-17T03:20:29;99813.00;;;12.70
21210;BMP180;10762;42.206;25.326;2024-03-17T03:22:55;99812.00;;;12.70
21210;BMP180;10762;42.206;25.326;2024-03-17T03:25:22;99825.00;;;12.70
21210;BMP180;10762;42.206;25.326;2024-03-17T03:27:48;99828.00;;;12.70
21210;BMP180;10762;42.206;25.326;2024-03-17T03:30:14;99821.00;;;12.80
21210;BMP180;10762;42.206;25.326;2024-03-17T03:32:41;99825.00;;;12.80
21210;BMP180;10762;42.206;25.326;2024-03-17T03:35:08;99828.00;;;12.80
21210;BMP180;10762;42.206;25.326;2024-03-17T03:37:35;99824.00;;;12.80
21210;BMP180;10762;42.206;25.326;2024-03-17T03:40:01;99833.00;;;12.90
21210;BMP180;10762;42.206;25.326;2024-03-17T03:42:27;99836.00;;;12.90
21210;BMP180;10762;42.206;25.326;2024-03-17T03:44:53;99825.00;;;12.90
21210;BMP180;10762;42.206;25.326;2024-03-17T03:47:19;99827.00;;;12.90
21210;BMP180;10762;42.206;25.326;2024-03-17T03:49:45;99830.00;;;12.90
21210;BMP180;10762;42.206;25.326;2024-03-17T03:52:11;99826.00;;;12.90
21210;BMP180;10762;42.206;25.326;2024-03-17T03:54:37;99843.00;;;12.90
21210;BMP180;10762;42.206;25.326;2024-03-17T03:57:03;99832.00;;;12.90
21210;BMP180;10762;42.206;25.326;2024-03-17T03:59:30;99836.00;;;12.90
21210;BMP180;10762;42.206;25.326;2024-03-17T04:01:56;99844.00;;;12.90
21210;BMP180;10762;42.206;25.326;2024-03-17T04:04:22;99844.00;;;12.90
21210;BMP180;10762;42.206;25.326;2024-03-17T04:06:48;99836.00;;;12.90
21210;BMP180;10762;42.206;25.326;2024-03-17T04:09:14;99850.00;;;12.80
21210;BMP180;10762;42.206;25.326;2024-03-17T04:11:40;99859.00;;;12.90
21210;BMP180;10762;42.206;25.326;2024-03-17T04:14:06;99854.00;;;12.80
21210;BMP180;10762;42.206;25.326;2024-03-17T04:16:32;99858.00;;;12.80
21210;BMP180;10762;42.206;25.326;2024-03-17T04:18:58;99854.00;;;12.80
21210;BMP180;10762;42.206;25.326;2024-03-17T04:21:24;99859.00;;;12.80
21210;BMP180;10762;42.206;25.326;2024-03-17T04:23:50;99856.00;;;12.70
21210;BMP180;10762;42.206;25.326;2024-03-17T04:26:16;99868.00;;;12.70
21210;BMP180;10762;42.206;25.326;2024-03-17T04:28:42;99862.00;;;12.70
21210;BMP180;10762;42.206;25.326;2024-03-17T04:31:08;99862.00;;;12.70
21210;BMP180;10762;42.206;25.326;2024-03-17T04:33:37;99857.00;;;12.70
21210;BMP180;10762;42.206;25.326;2024-03-17T04:36:03;99863.00;;;12.60
21210;BMP180;10762;42.206;25.326;2024-03-17T04:38:29;99864.00;;;12.60
21210;BMP180;10762;42.206;25.326;2024-03-17T04:40:55;99868.00;;;12.60
21210;BMP180;10762;42.206;25.326;2024-03-17T04:43:32;99863.00;;;12.60
21210;BMP180;10762;42.206;25.326;2024-03-17T04:45:59;99879.00;;;12.60
21210;BMP180;10762;42.206;25.326;2024-03-17T04:48:25;99884.00;;;12.60
21210;BMP180;10762;42.206;25.326;2024-03-17T04:50:51;99881.00;;;12.60
21210;BMP180;10762;42.206;25.326;2024-03-17T04:53:17;99889.00;;;12.70
21210;BMP180;10762;42.206;25.326;2024-03-17T04:55:43;99891.00;;;12.60
21210;BMP180;10762;42.206;25.326;2024-03-17T04:58:09;99877.00;;;12.60
21210;BMP180;10762;42.206;25.326;2024-03-17T05:00:37;99880.00;;;12.70
21210;BMP180;10762;42.206;25.326;2024-03-17T05:03:03;99891.00;;;12.70
21210;BMP180;10762;42.206;25.326;2024-03-17T05:05:29;99884.00;;;12.60
21210;BMP180;10762;42.206;25.326;2024-03-17T05:07:55;99896.00;;;12.60
21210;BMP180;10762;42.206;25.326;2024-03-17T05:10:21;99892.00;;;12.60
21210;BMP180;10762;42.206;25.326;2024-03-17T05:12:47;99890.00;;;12.70
21210;BMP180;10762;42.206;25.326;2024-03-17T05:15:13;99885.00;;;12.60
21210;BMP180;10762;42.206;25.326;2024-03-17T05:17:40;99883.00;;;12.60
21210;BMP180;10762;42.206;25.326;2024-03-17T05:20:06;99899.00;;;12.60
21210;BMP180;10762;42.206;25.326;2024-03-17T05:22:34;99896.00;;;12.60
21210;BMP180;10762;42.206;25.326;2024-03-17T05:25:00;99900.00;;;12.60
21210;BMP180;10762;42.206;25.326;2024-03-17T05:27:26;99904.00;;;12.60
21210;BMP180;10762;42.206;25.326;2024-03-17T05:29:52;99903.00;;;12.60
21210;BMP180;10762;42.206;25.326;2024-03-17T05:32:18;99907.00;;;12.60
21210;BMP180;10762;42.206;25.326;2024-03-17T05:34:44;99905.00;;;12.60
21210;BMP180;10762;42.206;25.326;2024-03-17T05:37:10;99912.00;;;12.60
21210;BMP180;10762;42.206;25.326;2024-03-17T05:39:36;99910.00;;;12.60
21210;BMP180;10762;42.206;25.326;2024-03-17T05:42:02;99913.00;;;12.70
21210;BMP180;10762;42.206;25.326;2024-03-17T05:44:29;99909.00;;;12.70
21210;BMP180;10762;42.206;25.326;2024-03-17T05:46:59;99923.00;;;12.70
21210;BMP180;10762;42.206;25.326;2024-03-17T05:49:25;99915.00;;;12.80
21210;BMP180;10762;42.206;25.326;2024-03-17T05:51:51;99922.00;;;12.80
21210;BMP180;10762;42.206;25.326;2024-03-17T05:54:17;99912.00;;;12.90
21210;BMP180;10762;42.206;25.326;2024-03-17T05:56:43;99918.00;;;13.00
21210;BMP180;10762;42.206;25.326;2024-03-17T05:59:09;99920.00;;;13.10
21210;BMP180;10762;42.206;25.326;2024-03-17T06:01:35;99908.00;;;13.20
21210;BMP180;10762;42.206;25.326;2024-03-17T06:04:02;99924.00;;;13.20
21210;BMP180;10762;42.206;25.326;2024-03-17T06:06:31;99927.00;;;13.30
21210;BMP180;10762;42.206;25.326;2024-03-17T06:08:57;99924.00;;;13.40
21210;BMP180;10762;42.206;25.326;2024-03-17T06:11:23;99929.00;;;13.40
21210;BMP180;10762;42.206;25.326;2024-03-17T06:13:51;99935.00;;;13.40
21210;BMP180;10762;42.206;25.326;2024-03-17T06:16:18;99937.00;;;13.40
21210;BMP180;10762;42.206;25.326;2024-03-17T06:18:46;99930.00;;;13.40
21210;BMP180;10762;42.206;25.326;2024-03-17T06:21:16;99935.00;;;13.50
21210;BMP180;10762;42.206;25.326;2024-03-17T06:23:42;99938.00;;;13.50
21210;BMP180;10762;42.206;25.326;2024-03-17T06:26:11;99938.00;;;13.50
21210;BMP180;10762;42.206;25.326;2024-03-17T06:28:38;99936.00;;;13.60
21210;BMP180;10762;42.206;25.326;2024-03-17T06:31:04;99939.00;;;13.70
21210;BMP180;10762;42.206;25.326;2024-03-17T06:33:33;99935.00;;;13.70
21210;BMP180;10762;42.206;25.326;2024-03-17T06:36:02;99940.00;;;13.70
21210;BMP180;10762;42.206;25.326;2024-03-17T06:38:30;99934.00;;;13.80
21210;BMP180;10762;42.206;25.326;2024-03-17T06:40:56;99939.00;;;14.00
21210;BMP180;10762;42.206;25.326;2024-03-17T06:43:25;99940.00;;;14.00
21210;BMP180;10762;42.206;25.326;2024-03-17T06:45:55;99946.00;;;14.00
21210;BMP180;10762;42.206;25.326;2024-03-17T06:48:22;99946.00;;;14.00
21210;BMP180;10762;42.206;25.326;2024-03-17T06:50:48;99951.00;;;14.00
21210;BMP180;10762;42.206;25.326;2024-03-17T06:53:14;99951.00;;;14.10
21210;BMP180;10762;42.206;25.326;2024-03-17T06:55:40;99956.00;;;14.20
21210;BMP180;10762;42.206;25.326;2024-03-17T06:58:06;99946.00;;;14.30
21210;BMP180;10762;42.206;25.326;2024-03-17T07:00:32;99948.00;;;14.40
21210;BMP180;10762;42.206;25.326;2024-03-17T07:02:58;99953.00;;;14.60
21210;BMP180;10762;42.206;25.326;2024-03-17T07:05:25;99950.00;;;14.70
21210;BMP180;10762;42.206;25.326;2024-03-17T07:07:52;99953.00;;;14.80
21210;BMP180;10762;42.206;25.326;2024-03-17T07:10:18;99956.00;;;14.90
21210;BMP180;10762;42.206;25.326;2024-03-17T07:12:44;99958.00;;;14.80
21210;BMP180;10762;42.206;25.326;2024-03-17T07:15:10;99960.00;;;14.80
21210;BMP180;10762;42.206;25.326;2024-03-17T07:17:37;99952.00;;;14.80
21210;BMP180;10762;42.206;25.326;2024-03-17T07:20:03;99952.00;;;14.90
21210;BMP180;10762;42.206;25.326;2024-03-17T07:22:33;99954.00;;;15.10
21210;BMP180;10762;42.206;25.326;2024-03-17T07:25:00;99952.00;;;15.20
21210;BMP180;10762;42.206;25.326;2024-03-17T07:27:28;99953.00;;;15.30
21210;BMP180;10762;42.206;25.326;2024-03-17T07:29:54;99954.00;;;15.40
21210;BMP180;10762;42.206;25.326;2024-03-17T07:32:21;99953.00;;;15.40
21210;BMP180;10762;42.206;25.326;2024-03-17T07:34:49;99952.00;;;15.50
21210;BMP180;10762;42.206;25.326;2024-03-17T07:37:16;99951.00;;;15.60
21210;BMP180;10762;42.206;25.326;2024-03-17T07:39:42;99954.00;;;15.80
21210;BMP180;10762;42.206;25.326;2024-03-17T07:42:08;99955.00;;;15.90
21210;BMP180;10762;42.206;25.326;2024-03-17T07:44:34;99944.00;;;15.90
21210;BMP180;10762;42.206;25.326;2024-03-17T07:47:00;99955.00;;;15.90
21210;BMP180;10762;42.206;25.326;2024-03-17T07:49:27;99951.00;;;15.90
21210;BMP180;10762;42.206;25.326;2024-03-17T07:51:53;99946.00;;;16.10
21210;BMP180;10762;42.206;25.326;2024-03-17T07:54:19;99940.00;;;16.20
21210;BMP180;10762;42.206;25.326;2024-03-17T07:56:45;99943.00;;;16.40
21210;BMP180;10762;42.206;25.326;2024-03-17T07:59:12;99934.00;;;16.60
21210;BMP180;10762;42.206;25.326;2024-03-17T08:01:42;99935.00;;;16.80
21210;BMP180;10762;42.206;25.326;2024-03-17T08:04:08;99932.00;;;17.10
21210;BMP180;10762;42.206;25.326;2024-03-17T08:06:34;99933.00;;;17.20
21210;BMP180;10762;42.206;25.326;2024-03-17T08:09:00;99934.00;;;17.40
21210;BMP180;10762;42.206;25.326;2024-03-17T08:11:27;99931.00;;;17.60
21210;BMP180;10762;42.206;25.326;2024-03-17T08:13:53;99926.00;;;17.80
21210;BMP180;10762;42.206;25.326;2024-03-17T08:16:20;99930.00;;;17.90
21210;BMP180;10762;42.206;25.326;2024-03-17T08:18:46;99923.00;;;17.90
21210;BMP180;10762;42.206;25.326;2024-03-17T08:21:12;99924.00;;;17.90
21210;BMP180;10762;42.206;25.326;2024-03-17T08:23:38;99926.00;;;17.90
21210;BMP180;10762;42.206;25.326;2024-03-17T08:26:13;99931.00;;;17.90
21210;BMP180;10762;42.206;25.326;2024-03-17T08:28:39;99928.00;;;17.80
21210;BMP180;10762;42.206;25.326;2024-03-17T08:31:05;99924.00;;;17.90
21210;BMP180;10762;42.206;25.326;2024-03-17T08:33:31;99916.00;;;18.10
21210;BMP180;10762;42.206;25.326;2024-03-17T08:38:29;99914.00;;;18.50
21210;BMP180;10762;42.206;25.326;2024-03-17T08:40:55;99914.00;;;18.70
21210;BMP180;10762;42.206;25.326;2024-03-17T08:43:22;99918.00;;;18.70
21210;BMP180;10762;42.206;25.326;2024-03-17T08:45:55;99909.00;;;18.80
21210;BMP180;10762;42.206;25.326;2024-03-17T08:48:21;99914.00;;;19.00
21210;BMP180;10762;42.206;25.326;2024-03-17T08:50:53;99913.00;;;19.20
21210;BMP180;10762;42.206;25.326;2024-03-17T08:53:20;99901.00;;;19.40
21210;BMP180;10762;42.206;25.326;2024-03-17T08:55:46;99897.00;;;19.50
21210;BMP180;10762;42.206;25.326;2024-03-17T08:58:12;99893.00;;;19.70
21210;BMP180;10762;42.206;25.326;2024-03-17T09:00:38;99895.00;;;19.80
21210;BMP180;10762;42.206;25.326;2024-03-17T09:03:07;99897.00;;;19.70
21210;BMP180;10762;42.206;25.326;2024-03-17T09:05:36;99888.00;;;19.80
21210;BMP180;10762;42.206;25.326;2024-03-17T09:08:02;99892.00;;;19.70
21210;BMP180;10762;42.206;25.326;2024-03-17T09:10:29;99893.00;;;19.80
21210;BMP180;10762;42.206;25.326;2024-03-17T09:12:55;99878.00;;;19.90
21210;BMP180;10762;42.206;25.326;2024-03-17T09:15:21;99886.00;;;20.30
21210;BMP180;10762;42.206;25.326;2024-03-17T09:17:47;99880.00;;;20.60
21210;BMP180;10762;42.206;25.326;2024-03-17T09:20:13;99890.00;;;20.50
21210;BMP180;10762;42.206;25.326;2024-03-17T09:22:41;99889.00;;;20.60
21210;BMP180;10762;42.206;25.326;2024-03-17T09:25:07;99875.00;;;20.70
21210;BMP180;10762;42.206;25.326;2024-03-17T09:27:34;99884.00;;;20.90
21210;BMP180;10762;42.206;25.326;2024-03-17T09:30:00;99878.00;;;20.90
21210;BMP180;10762;42.206;25.326;2024-03-17T09:32:26;99872.00;;;21.00
21210;BMP180;10762;42.206;25.326;2024-03-17T09:34:52;99864.00;;;21.30
21210;BMP180;10762;42.206;25.326;2024-03-17T09:37:18;99858.00;;;21.40
21210;BMP180;10762;42.206;25.326;2024-03-17T09:39:47;99861.00;;;21.50
21210;BMP180;10762;42.206;25.326;2024-03-17T09:42:17;99854.00;;;21.60
21210;BMP180;10762;42.206;25.326;2024-03-17T09:44:43;99860.00;;;21.40
21210;BMP180;10762;42.206;25.326;2024-03-17T09:47:12;99861.00;;;21.20
21210;BMP180;10762;42.206;25.326;2024-03-17T09:49:42;99859.00;;;21.10
21210;BMP180;10762;42.206;25.326;2024-03-17T09:52:08;99851.00;;;21.30
21210;BMP180;10762;42.206;25.326;2024-03-17T09:54:43;99857.00;;;21.60
21210;BMP180;10762;42.206;25.326;2024-03-17T09:57:09;99849.00;;;21.70
21210;BMP180;10762;42.206;25.326;2024-03-17T09:59:40;99850.00;;;21.70
21210;BMP180;10762;42.206;25.326;2024-03-17T10:02:08;99849.00;;;21.50
21210;BMP180;10762;42.206;25.326;2024-03-17T10:04:42;99846.00;;;21.60
21210;BMP180;10762;42.206;25.326;2024-03-17T10:07:08;99847.00;;;21.70
21210;BMP180;10762;42.206;25.326;2024-03-17T10:09:34;99845.00;;;21.50
21210;BMP180;10762;42.206;25.326;2024-03-17T10:12:00;99843.00;;;21.00
21210;BMP180;10762;42.206;25.326;2024-03-17T10:14:26;99842.00;;;20.80
21210;BMP180;10762;42.206;25.326;2024-03-17T10:16:52;99840.00;;;20.80
21210;BMP180;10762;42.206;25.326;2024-03-17T10:19:22;99837.00;;;20.80
21210;BMP180;10762;42.206;25.326;2024-03-17T10:21:48;99837.00;;;20.90
21210;BMP180;10762;42.206;25.326;2024-03-17T10:24:24;99830.00;;;20.90
21210;BMP180;10762;42.206;25.326;2024-03-17T10:26:51;99829.00;;;20.80
21210;BMP180;10762;42.206;25.326;2024-03-17T10:31:43;99830.00;;;20.60
21210;BMP180;10762;42.206;25.326;2024-03-17T10:34:12;99826.00;;;20.70
21210;BMP180;10762;42.206;25.326;2024-03-17T10:36:40;99817.00;;;21.00
21210;BMP180;10762;42.206;25.326;2024-03-17T10:39:16;99813.00;;;21.30
21210;BMP180;10762;42.206;25.326;2024-03-17T10:41:48;99809.00;;;21.60
21210;BMP180;10762;42.206;25.326;2024-03-17T10:44:14;99805.00;;;21.80
21210;BMP180;10762;42.206;25.326;2024-03-17T10:46:40;99807.00;;;22.00
21210;BMP180;10762;42.206;25.326;2024-03-17T10:49:06;99810.00;;;22.10
21210;BMP180;10762;42.206;25.326;2024-03-17T10:51:36;99797.00;;;22.30
21210;BMP180;10762;42.206;25.326;2024-03-17T10:54:02;99803.00;;;22.50
21210;BMP180;10762;42.206;25.326;2024-03-17T10:56:29;99801.00;;;22.60
21210;BMP180;10762;42.206;25.326;2024-03-17T10:58:55;99800.00;;;22.60
21210;BMP180;10762;42.206;25.326;2024-03-17T11:01:22;99792.00;;;22.50
21210;BMP180;10762;42.206;25.326;2024-03-17T11:03:49;99794.00;;;22.50
21210;BMP180;10762;42.206;25.326;2024-03-17T11:06:17;99796.00;;;22.50
21210;BMP180;10762;42.206;25.326;2024-03-17T11:08:43;99790.00;;;22.60
21210;BMP180;10762;42.206;25.326;2024-03-17T11:11:10;99787.00;;;22.70
21210;BMP180;10762;42.206;25.326;2024-03-17T11:13:36;99786.00;;;22.80
21210;BMP180;10762;42.206;25.326;2024-03-17T11:16:05;99791.00;;;23.00
21210;BMP180;10762;42.206;25.326;2024-03-17T11:18:50;99782.00;;;23.00
21210;BMP180;10762;42.206;25.326;2024-03-17T11:21:20;99778.00;;;23.00
21210;BMP180;10762;42.206;25.326;2024-03-17T11:23:57;99774.00;;;23.10
21210;BMP180;10762;42.206;25.326;2024-03-17T11:26:42;99776.00;;;23.00
21210;BMP180;10762;42.206;25.326;2024-03-17T11:29:23;99769.00;;;23.00
21210;BMP180;10762;42.206;25.326;2024-03-17T11:31:51;99766.00;;;22.60
21210;BMP180;10762;42.206;25.326;2024-03-17T11:34:27;99757.00;;;22.40
21210;BMP180;10762;42.206;25.326;2024-03-17T11:36:54;99757.00;;;22.60
21210;BMP180;10762;42.206;25.326;2024-03-17T11:39:21;99757.00;;;22.80
21210;BMP180;10762;42.206;25.326;2024-03-17T11:41:51;99749.00;;;22.60
21210;BMP180;10762;42.206;25.326;2024-03-17T11:46:51;99741.00;;;23.10
21210;BMP180;10762;42.206;25.326;2024-03-17T11:49:18;99744.00;;;23.40
21210;BMP180;10762;42.206;25.326;2024-03-17T11:51:45;99739.00;;;23.80
21210;BMP180;10762;42.206;25.326;2024-03-17T11:54:19;99739.00;;;24.20
21210;BMP180;10762;42.206;25.326;2024-03-17T11:56:48;99730.00;;;24.40
21210;BMP180;10762;42.206;25.326;2024-03-17T11:59:15;99725.00;;;24.50
21210;BMP180;10762;42.206;25.326;2024-03-17T12:01:44;99717.00;;;24.70
21210;BMP180;10762;42.206;25.326;2024-03-17T12:04:11;99718.00;;;24.90
21210;BMP180;10762;42.206;25.326;2024-03-17T12:06:38;99713.00;;;25.10
21210;BMP180;10762;42.206;25.326;2024-03-17T12:11:50;99720.00;;;25.40
21210;BMP180;10762;42.206;25.326;2024-03-17T12:14:19;99718.00;;;25.30
21210;BMP180;10762;42.206;25.326;2024-03-17T12:16:46;99706.00;;;25.20
21210;BMP180;10762;42.206;25.326;2024-03-17T12:19:14;99704.00;;;25.00
21210;BMP180;10762;42.206;25.326;2024-03-17T12:21:46;99712.00;;;25.00
21210;BMP180;10762;42.206;25.326;2024-03-17T12:24:19;99706.00;;;24.90
21210;BMP180;10762;42.206;25.326;2024-03-17T12:26:46;99702.00;;;24.60
21210;BMP180;10762;42.206;25.326;2024-03-17T12:29:26;99702.00;;;24.60
21210;BMP180;10762;42.206;25.326;2024-03-17T12:31:54;99705.00;;;24.60
21210;BMP180;10762;42.206;25.326;2024-03-17T12:34:21;99700.00;;;24.70
21210;BMP180;10762;42.206;25.326;2024-03-17T12:36:47;99699.00;;;24.80
21210;BMP180;10762;42.206;25.326;2024-03-17T12:39:18;99688.00;;;24.80
21210;BMP180;10762;42.206;25.326;2024-03-17T12:41:45;99692.00;;;24.80
21210;BMP180;10762;42.206;25.326;2024-03-17T12:44:21;99685.00;;;24.80
21210;BMP180;10762;42.206;25.326;2024-03-17T12:46:47;99688.00;;;24.70
21210;BMP180;10762;42.206;25.326;2024-03-17T12:49:13;99683.00;;;24.80
21210;BMP180;10762;42.206;25.326;2024-03-17T12:51:40;99667.00;;;24.70
21210;BMP180;10762;42.206;25.326;2024-03-17T12:54:13;99673.00;;;24.60
21210;BMP180;10762;42.206;25.326;2024-03-17T12:56:39;99673.00;;;24.40
21210;BMP180;10762;42.206;25.326;2024-03-17T12:59:24;99664.00;;;24.20
21210;BMP180;10762;42.206;25.326;2024-03-17T13:02:10;99667.00;;;24.20
21210;BMP180;10762;42.206;25.326;2024-03-17T13:04:37;99653.00;;;24.20
21210;BMP180;10762;42.206;25.326;2024-03-17T13:07:13;99656.00;;;24.10
21210;BMP180;10762;42.206;25.326;2024-03-17T13:09:40;99650.00;;;24.10
21210;BMP180;10762;42.206;25.326;2024-03-17T13:12:15;99652.00;;;24.20
21210;BMP180;10762;42.206;25.326;2024-03-17T13:14:41;99643.00;;;24.40
21210;BMP180;10762;42.206;25.326;2024-03-17T13:17:07;99647.00;;;24.60
21210;BMP180;10762;42.206;25.326;2024-03-17T13:19:41;99649.00;;;24.50
21210;BMP180;10762;42.206;25.326;2024-03-17T13:22:08;99646.00;;;24.30
21210;BMP180;10762;42.206;25.326;2024-03-17T13:24:38;99650.00;;;24.40
21210;BMP180;10762;42.206;25.326;2024-03-17T13:27:04;99638.00;;;24.40
21210;BMP180;10762;42.206;25.326;2024-03-17T13:29:32;99647.00;;;24.40
21210;BMP180;10762;42.206;25.326;2024-03-17T13:32:04;99638.00;;;24.40
21210;BMP180;10762;42.206;25.326;2024-03-17T13:34:30;99630.00;;;24.30
21210;BMP180;10762;42.206;25.326;2024-03-17T13:36:56;99636.00;;;24.30
21210;BMP180;10762;42.206;25.326;2024-03-17T13:39:28;99632.00;;;24.00
21210;BMP180;10762;42.206;25.326;2024-03-17T13:41:55;99631.00;;;23.80
21210;BMP180;10762;42.206;25.326;2024-03-17T13:44:23;99633.00;;;23.80
21210;BMP180;10762;42.206;25.326;2024-03-17T13:46:49;99631.00;;;23.80
21210;BMP180;10762;42.206;25.326;2024-03-17T13:49:15;99634.00;;;23.80
21210;BMP180;10762;42.206;25.326;2024-03-17T13:51:41;99622.00;;;23.80
21210;BMP180;10762;42.206;25.326;2024-03-17T13:54:07;99619.00;;;23.80
21210;BMP180;10762;42.206;25.326;2024-03-17T13:56:33;99614.00;;;23.80
21210;BMP180;10762;42.206;25.326;2024-03-17T13:58:59;99609.00;;;23.80
21210;BMP180;10762;42.206;25.326;2024-03-17T14:01:25;99618.00;;;23.70
21210;BMP180;10762;42.206;25.326;2024-03-17T14:03:52;99618.00;;;23.50
21210;BMP180;10762;42.206;25.326;2024-03-17T14:06:18;99617.00;;;23.40
21210;BMP180;10762;42.206;25.326;2024-03-17T14:08:45;99610.00;;;23.30